Aurora, Nebraska
Current Conditions -  °F | °C
As of 1:15 PM on Friday 21 Nov 2014 (Local Time) from KAUH Reporting Station
Clear Clear  
Wind Chill: 36°   Ceiling: Unl
Heat Index: 41°   Visibility: 10mi
Dew Point: 27°   Wind: 8mph
Humidity: 57%   Direction: 200°SSW
Pressure: 30.03"   Gusts: NA
Location:  40.87°N, 98°W
Report Text: KAUH 211915Z AUTO 20007KT 10SM CLR 05/M03 A3003 RMK AO2 T00521027
Loading
Personal Weather Stations






























Interactive Weather Map New forecast layout! Learn more

10-Day Weather Forecast

Advertisements
Track Severe Weather on mobile